Time;durP1;ratioP1;P1;durP2;ratioP2;P2;SDS_P1;SDS_P2;PMS_P1;PMS_P2;Temp;Humidity;BMP_temperature;BMP_pressure;BME280_temperature;BME280_humidity;BME280_pressure;Samples;Min_cycle;Max_cycle;Signal;HPM_P1;HPM_P2
2022/04/30 00:00:09;;;;;;;11.57;10.37;;;17.80;83.20;;;;;;5009758;28;20549;-75
2022/04/30 00:02:35;;;;;;;14.03;11.47;;;17.90;83.80;;;;;;5024945;28;20467;-73
2022/04/30 00:05:01;;;;;;;18.37;10.20;;;17.90;84.40;;;;;;5011264;28;20485;-74
2022/04/30 00:07:27;;;;;;;15.03;12.97;;;17.70;84.50;;;;;;5008811;28;20436;-74
2022/04/30 00:09:53;;;;;;;13.20;11.10;;;17.50;85.50;;;;;;5009902;28;20478;-74
2022/04/30 00:12:19;;;;;;;19.20;11.23;;;17.40;86.30;;;;;;5002260;28;20282;-75
2022/04/30 00:14:46;;;;;;;12.70;11.33;;;17.40;87.30;;;;;;5014164;28;20762;-75
2022/04/30 00:17:12;;;;;;;14.77;10.47;;;17.00;89.50;;;;;;5009614;28;20462;-73
2022/04/30 00:19:38;;;;;;;17.73;12.30;;;16.90;90.50;;;;;;5005827;28;20444;-73
2022/04/30 00:22:04;;;;;;;15.13;11.50;;;17.00;90.80;;;;;;5024142;28;21469;-75
2022/04/30 00:24:30;;;;;;;20.33;12.27;;;17.00;90.90;;;;;;5008271;28;20806;-75
2022/04/30 00:27:01;;;;;;;17.90;12.70;;;17.10;91.20;;;;;;5006174;28;20181;-74
2022/04/30 00:29:31;;;;;;;13.60;11.70;;;17.20;91.50;;;;;;5008131;28;20490;-75
2022/04/30 00:31:57;;;;;;;18.10;12.43;;;17.20;91.90;;;;;;5011905;28;20475;-74
2022/04/30 00:34:23;;;;;;;16.83;12.00;;;17.10;92.20;;;;;;5004737;28;20496;-75
2022/04/30 00:36:49;;;;;;;21.50;13.30;;;17.20;92.30;;;;;;5007163;28;20444;-76
2022/04/30 00:39:15;;;;;;;19.57;12.47;;;17.30;92.50;;;;;;5010386;28;20628;-75
2022/04/30 00:41:49;;;;;;;17.30;13.30;;;17.10;93.00;;;;;;5006435;28;20191;-75
2022/04/30 00:44:19;;;;;;;18.67;14.00;;;17.00;93.20;;;;;;5008696;28;20191;-75
2022/04/30 00:46:45;;;;;;;14.30;11.53;;;17.20;93.20;;;;;;5010191;28;20450;-75
2022/04/30 00:49:11;;;;;;;18.73;12.80;;;16.90;93.60;;;;;;5009674;28;20439;-75
2022/04/30 00:51:39;;;;;;;16.47;12.87;;;16.90;94.30;;;;;;5007430;28;20616;-76
2022/04/30 00:54:06;;;;;;;17.63;12.30;;;17.00;94.40;;;;;;5011070;28;20440;-74
2022/04/30 00:56:44;;;;;;;16.40;12.87;;;17.10;94.50;;;;;;5010617;28;20475;-74
2022/04/30 00:59:11;;;;;;;15.97;12.10;;;17.00;94.80;;;;;;5011449;28;20448;-74
2022/04/30 01:01:37;;;;;;;14.50;12.43;;;17.00;95.10;;;;;;5009276;28;20490;-74
2022/04/30 01:04:07;;;;;;;16.07;13.70;;;17.00;95.50;;;;;;5008224;28;20467;-74
2022/04/30 01:06:52;;;;;;;18.47;13.93;;;17.10;95.50;;;;;;5013785;28;20439;-75
2022/04/30 01:09:29;;;;;;;17.23;13.67;;;17.20;95.50;;;;;;5009386;28;20445;-74
2022/04/30 01:11:56;;;;;;;16.53;13.40;;;17.10;95.70;;;;;;5020297;28;20997;-75
2022/04/30 01:14:25;;;;;;;22.37;15.63;;;17.20;95.80;;;;;;5009252;28;20436;-74
2022/04/30 01:16:52;;;;;;;24.17;14.40;;;17.10;96.40;;;;;;5016485;28;20431;-73
2022/04/30 01:19:20;;;;;;;17.50;13.97;;;17.30;96.20;;;;;;5015880;28;20461;-74
2022/04/30 01:21:50;;;;;;;19.87;13.73;;;17.30;96.10;;;;;;5017341;28;20521;-75
2022/04/30 01:24:24;;;;;;;24.10;16.00;;;17.20;96.50;;;;;;5012835;28;20447;-74
2022/04/30 01:26:52;;;;;;;22.60;14.07;;;17.20;96.70;;;;;;5016980;28;20524;-75
2022/04/30 01:29:19;;;;;;;20.40;14.43;;;17.00;97.60;;;;;;5014503;28;20459;-74
2022/04/30 01:37:23;;;;;;;24.10;15.53;;;16.90;98.30;;;;;;5017574;28;20608;-73
2022/04/30 01:40:00;;;;;;;20.97;14.50;;;17.00;98.30;;;;;;5015533;28;20451;-75
2022/04/30 01:42:29;;;;;;;19.17;14.30;;;17.10;98.30;;;;;;5015688;28;20550;-76
2022/04/30 01:44:57;;;;;;;23.60;16.27;;;17.00;98.70;;;;;;5013319;28;20474;-76
2022/04/30 01:47:24;;;;;;;23.50;15.60;;;16.80;99.70;;;;;;5008930;28;20446;-76
2022/04/30 01:49:50;;;;;;;22.77;17.57;;;16.90;99.50;;;;;;5011204;28;20552;-74
2022/04/30 01:52:16;;;;;;;24.77;17.20;;;16.90;99.90;;;;;;5011322;28;20458;-75
2022/04/30 01:54:42;;;;;;;19.90;14.90;;;16.90;99.90;;;;;;5013867;28;20443;-76
2022/04/30 01:57:08;;;;;;;21.53;15.83;;;16.80;99.90;;;;;;5027053;28;20443;-76
2022/04/30 01:59:34;;;;;;;25.07;17.10;;;16.80;99.90;;;;;;5013778;28;20972;-76
2022/04/30 02:02:02;;;;;;;22.60;16.63;;;16.90;99.90;;;;;;5012438;28;20212;-74
2022/04/30 02:04:28;;;;;;;25.43;16.33;;;16.80;99.90;;;;;;5011770;28;20467;-75
2022/04/30 02:06:55;;;;;;;21.40;16.73;;;16.80;99.90;;;;;;5016325;28;20439;-75
2022/04/30 02:09:22;;;;;;;22.77;17.40;;;16.80;99.90;;;;;;5011421;28;23253;-75
2022/04/30 02:11:48;;;;;;;23.00;17.50;;;16.50;99.90;;;;;;5010298;28;20447;-75
2022/04/30 02:14:15;;;;;;;25.70;18.57;;;16.40;99.90;;;;;;5013265;28;20466;-74
2022/04/30 02:16:43;;;;;;;28.80;18.33;;;16.40;99.90;;;;;;5025407;28;20950;-75
2022/04/30 02:19:09;;;;;;;23.60;17.00;;;16.40;99.90;;;;;;5010015;28;20427;-74
2022/04/30 02:21:36;;;;;;;26.93;18.27;;;16.40;99.90;;;;;;5029468;28;20841;-73
2022/04/30 02:24:03;;;;;;;24.00;17.90;;;16.30;99.90;;;;;;5014308;28;20435;-75
2022/04/30 02:26:29;;;;;;;24.93;19.17;;;16.30;99.90;;;;;;5014172;28;21140;-74
2022/04/30 02:28:57;;;;;;;23.73;17.20;;;16.50;99.90;;;;;;5010631;28;20978;-76
2022/04/30 02:31:25;;;;;;;27.83;17.27;;;16.40;99.90;;;;;;5012873;28;20471;-76
2022/04/30 02:33:54;;;;;;;28.87;18.07;;;16.30;99.90;;;;;;5012301;28;20465;-74
2022/04/30 02:36:25;;;;;;;24.70;17.60;;;16.40;99.90;;;;;;5012333;28;20471;-76
2022/04/30 02:38:55;;;;;;;24.50;17.53;;;16.40;99.90;;;;;;5011470;28;20451;-74
2022/04/30 02:41:21;;;;;;;23.30;17.20;;;16.50;99.90;;;;;;5011578;28;20446;-75
2022/04/30 02:43:51;;;;;;;20.90;17.67;;;16.40;99.90;;;;;;5009994;28;20451;-74
2022/04/30 02:46:17;;;;;;;22.80;16.87;;;16.50;99.90;;;;;;5008313;28;21116;-75
2022/04/30 02:48:44;;;;;;;22.70;17.40;;;16.70;99.90;;;;;;5011043;28;20439;-75
2022/04/30 02:51:10;;;;;;;22.97;17.17;;;16.60;99.90;;;;;;5012647;28;20492;-75
2022/04/30 02:53:37;;;;;;;23.23;17.53;;;16.60;99.90;;;;;;5015460;28;20845;-74
2022/04/30 02:56:04;;;;;;;28.17;19.07;;;16.40;99.90;;;;;;5013076;28;20489;-73
2022/04/30 03:01:13;;;;;;;27.23;18.57;;;16.40;99.90;;;;;;5011030;28;20453;-74
2022/04/30 03:03:40;;;;;;;26.87;19.10;;;16.20;99.90;;;;;;5012367;28;20468;-74
2022/04/30 03:06:07;;;;;;;27.87;20.30;;;16.00;99.90;;;;;;5026617;28;20228;-73
2022/04/30 03:08:32;;;;;;;21.50;16.53;;;16.10;99.90;;;;;;5012587;28;20478;-74
2022/04/30 03:10:59;;;;;;;20.37;16.57;;;16.30;99.90;;;;;;5011902;28;20894;-75
2022/04/30 03:13:25;;;;;;;25.13;18.30;;;16.20;99.90;;;;;;5009715;28;20367;-75
2022/04/30 03:15:56;;;;;;;29.17;18.67;;;16.20;99.90;;;;;;5009830;28;20539;-75
2022/04/30 03:23:44;;;;;;;27.40;18.43;;;16.10;99.90;;;;;;5009730;28;20483;-75
2022/04/30 03:26:12;;;;;;;28.00;19.63;;;16.10;99.90;;;;;;5012187;28;20543;-75
2022/04/30 03:28:40;;;;;;;24.63;18.83;;;16.20;99.90;;;;;;5009884;28;20181;-75
2022/04/30 03:31:06;;;;;;;29.30;18.53;;;15.80;99.90;;;;;;5011202;28;20423;-74
2022/04/30 03:33:32;;;;;;;27.73;18.07;;;16.10;99.90;;;;;;5013534;28;20462;-74
2022/04/30 03:35:59;;;;;;;23.00;17.70;;;16.10;99.90;;;;;;5010076;28;20958;-75
2022/04/30 03:38:25;;;;;;;22.80;17.80;;;15.80;99.90;;;;;;4996266;28;20982;-77
2022/04/30 03:40:51;;;;;;;26.00;17.40;;;15.90;99.90;;;;;;5024019;28;20454;-75
2022/04/30 03:43:18;;;;;;;25.90;18.17;;;16.10;99.90;;;;;;5009954;28;20458;-74
2022/04/30 03:45:44;;;;;;;25.97;18.17;;;16.00;99.90;;;;;;5008712;28;20200;-77
2022/04/30 03:48:09;;;;;;;28.67;19.20;;;16.00;99.90;;;;;;5010604;28;20432;-76
2022/04/30 03:50:35;;;;;;;23.87;18.47;;;16.10;99.90;;;;;;5012097;28;20445;-76
2022/04/30 03:53:01;;;;;;;30.80;20.73;;;16.10;99.90;;;;;;5012271;28;20205;-78
2022/04/30 03:55:27;;;;;;;31.73;20.60;;;15.90;99.90;;;;;;5010340;28;20526;-75
2022/04/30 03:57:56;;;;;;;22.00;18.97;;;15.90;99.90;;;;;;5011351;28;20457;-75
2022/04/30 04:00:23;;;;;;;26.63;19.20;;;15.90;99.90;;;;;;5010712;28;20462;-76
2022/04/30 04:02:50;;;;;;;26.67;18.80;;;16.00;99.90;;;;;;5005637;28;20539;-77
2022/04/30 04:05:17;;;;;;;28.27;19.47;;;15.90;99.90;;;;;;5007104;28;20462;-76
2022/04/30 04:07:43;;;;;;;25.00;17.93;;;15.50;99.90;;;;;;5010688;28;20432;-77
2022/04/30 04:10:10;;;;;;;26.73;19.50;;;15.70;99.90;;;;;;5012305;28;20435;-78
2022/04/30 04:12:37;;;;;;;23.80;18.23;;;15.90;99.90;;;;;;5012295;28;20503;-77
2022/04/30 04:17:48;;;;;;;21.93;17.40;;;16.10;99.90;;;;;;5013934;28;20496;-76
2022/04/30 04:20:16;;;;;;;25.67;18.97;;;16.10;99.90;;;;;;5010690;28;20447;-76
2022/04/30 04:22:42;;;;;;;25.63;19.60;;;16.10;99.90;;;;;;5009791;28;20646;-76
2022/04/30 04:27:54;;;;;;;25.97;19.20;;;16.10;99.90;;;;;;5012085;28;20200;-77
2022/04/30 04:30:23;;;;;;;27.33;20.87;;;15.60;99.90;;;;;;5013423;28;20502;-78
2022/04/30 04:32:53;;;;;;;25.10;19.83;;;15.60;99.90;;;;;;5011613;28;20462;-79
2022/04/30 04:35:19;;;;;;;25.83;19.73;;;15.60;99.90;;;;;;5014865;28;20455;-76
2022/04/30 04:37:45;;;;;;;31.53;21.70;;;15.50;99.90;;;;;;5010943;28;20431;-74
2022/04/30 04:40:13;;;;;;;29.30;20.83;;;15.50;99.90;;;;;;5010929;28;20273;-75
2022/04/30 04:42:40;;;;;;;26.47;21.80;;;15.60;99.90;;;;;;5012306;28;20474;-76
2022/04/30 04:45:07;;;;;;;24.97;19.33;;;15.50;99.90;;;;;;5007405;28;20609;-78
2022/04/30 04:47:35;;;;;;;26.60;19.83;;;15.60;99.90;;;;;;5009794;28;20467;-75
2022/04/30 04:50:04;;;;;;;29.63;21.63;;;15.50;99.90;;;;;;5021476;28;20443;-76
2022/04/30 04:52:30;;;;;;;30.90;21.00;;;15.40;99.90;;;;;;5022661;28;20442;-74
2022/04/30 04:54:57;;;;;;;26.23;21.07;;;15.60;99.90;;;;;;5015829;28;20447;-76
2022/04/30 04:57:23;;;;;;;25.77;20.57;;;15.40;99.90;;;;;;5018137;28;20699;-76
2022/04/30 04:59:49;;;;;;;26.13;20.50;;;15.60;99.90;;;;;;5011054;28;20449;-75
2022/04/30 05:02:16;;;;;;;30.13;21.70;;;15.60;99.90;;;;;;5024010;28;20458;-76
2022/04/30 05:04:42;;;;;;;30.10;22.00;;;15.50;99.90;;;;;;5011959;28;20207;-75
2022/04/30 05:07:07;;;;;;;27.93;21.07;;;15.70;99.90;;;;;;5011621;28;20786;-76
2022/04/30 05:09:33;;;;;;;32.47;20.90;;;15.50;99.90;;;;;;5008409;28;20223;-75
2022/04/30 05:12:01;;;;;;;26.70;18.87;;;15.60;99.90;;;;;;5011198;28;20676;-76
2022/04/30 05:14:32;;;;;;;29.10;21.03;;;15.80;99.90;;;;;;5012274;28;20315;-77
2022/04/30 05:17:01;;;;;;;27.03;20.23;;;15.70;99.90;;;;;;5010188;28;20989;-74
2022/04/30 05:19:27;;;;;;;28.43;21.40;;;15.70;99.90;;;;;;5013593;28;20439;-76
2022/04/30 05:21:53;;;;;;;27.27;20.83;;;15.60;99.90;;;;;;5007632;28;20851;-77
2022/04/30 05:24:19;;;;;;;27.33;21.67;;;15.60;99.90;;;;;;5014813;28;20180;-75
2022/04/30 05:26:47;;;;;;;27.33;20.90;;;15.70;99.90;;;;;;5011545;28;20576;-75
2022/04/30 05:29:16;;;;;;;28.50;20.87;;;15.80;99.90;;;;;;5011609;28;20192;-77
2022/04/30 05:31:42;;;;;;;28.27;21.10;;;15.90;99.90;;;;;;5009936;28;20431;-78
2022/04/30 05:34:08;;;;;;;28.50;22.27;;;15.50;99.90;;;;;;5007896;28;20891;-76
2022/04/30 05:36:34;;;;;;;28.93;22.00;;;15.50;99.90;;;;;;5003234;28;20439;-75
2022/04/30 05:38:59;;;;;;;25.90;21.87;;;15.40;99.90;;;;;;5006750;28;20173;-77
2022/04/30 05:41:28;;;;;;;28.57;21.50;;;14.80;99.90;;;;;;5011845;28;20439;-76
2022/04/30 05:43:55;;;;;;;22.80;19.13;;;15.00;99.90;;;;;;5009023;28;20216;-78
2022/04/30 05:46:20;;;;;;;23.13;18.57;;;15.30;99.90;;;;;;5005178;28;20474;-77
2022/04/30 05:48:46;;;;;;;23.73;18.27;;;15.50;99.90;;;;;;5014398;28;20957;-75
2022/04/30 05:51:11;;;;;;;27.10;20.07;;;15.50;99.90;;;;;;5006475;28;20813;-75
2022/04/30 05:53:37;;;;;;;25.67;18.80;;;15.10;99.90;;;;;;5010015;28;20295;-76
2022/04/30 05:56:03;;;;;;;29.43;18.43;;;15.30;99.90;;;;;;5008516;28;20192;-77
2022/04/30 05:58:29;;;;;;;22.17;18.43;;;15.30;99.90;;;;;;5012156;28;20304;-76
2022/04/30 06:00:54;;;;;;;23.90;19.07;;;15.50;99.90;;;;;;5009200;28;20481;-75
2022/04/30 06:03:20;;;;;;;22.40;17.43;;;15.40;99.90;;;;;;5009328;28;20209;-74
2022/04/30 06:05:46;;;;;;;23.63;18.60;;;15.30;99.90;;;;;;5013376;28;20209;-76
2022/04/30 06:08:12;;;;;;;21.10;17.67;;;15.40;99.90;;;;;;5021456;28;20180;-75
2022/04/30 06:10:37;;;;;;;23.63;18.40;;;15.40;99.90;;;;;;5009796;28;20854;-76
2022/04/30 06:13:03;;;;;;;22.83;19.30;;;15.30;99.90;;;;;;5029105;28;20201;-75
2022/04/30 06:15:29;;;;;;;23.20;18.40;;;15.50;99.90;;;;;;5009616;28;20184;-76
2022/04/30 06:17:55;;;;;;;26.00;19.33;;;15.60;99.90;;;;;;5012279;28;20459;-75
2022/04/30 06:20:21;;;;;;;24.67;19.50;;;15.30;99.90;;;;;;5013212;28;20188;-75
2022/04/30 06:22:46;;;;;;;20.03;17.10;;;15.20;99.90;;;;;;5010792;28;20455;-75
2022/04/30 06:25:12;;;;;;;20.40;15.83;;;15.40;99.90;;;;;;5009573;28;20236;-76
2022/04/30 06:27:38;;;;;;;22.87;17.67;;;15.30;99.90;;;;;;5011275;28;20188;-75
2022/04/30 06:30:06;;;;;;;21.30;16.20;;;15.40;99.90;;;;;;5011542;28;20184;-77
2022/04/30 06:32:34;;;;;;;19.80;16.53;;;15.50;99.90;;;;;;5012378;28;20923;-78
2022/04/30 06:35:02;;;;;;;20.30;17.07;;;15.60;99.90;;;;;;5011209;28;20978;-74
2022/04/30 06:37:28;;;;;;;20.57;16.80;;;15.50;99.90;;;;;;5013268;28;21561;-75
2022/04/30 06:39:53;;;;;;;20.83;15.60;;;15.50;99.90;;;;;;5013843;28;20470;-74
2022/04/30 06:42:19;;;;;;;21.00;16.23;;;15.50;99.90;;;;;;5011234;28;20212;-76
2022/04/30 06:44:45;;;;;;;22.70;17.37;;;15.70;99.90;;;;;;5011164;28;20257;-76
2022/04/30 06:47:10;;;;;;;21.40;18.23;;;15.60;99.90;;;;;;5007643;28;20207;-77
2022/04/30 06:49:36;;;;;;;22.33;18.07;;;15.30;99.90;;;;;;5028272;28;20467;-78
2022/04/30 06:52:03;;;;;;;22.63;16.50;;;15.20;99.90;;;;;;5025225;28;20359;-77
2022/04/30 06:57:16;;;;;;;24.40;19.57;;;15.00;99.90;;;;;;5012054;28;20446;-76
2022/04/30 06:59:42;;;;;;;21.60;17.80;;;14.90;99.90;;;;;;5006033;28;23602;-77
2022/04/30 07:02:13;;;;;;;20.60;17.70;;;15.10;99.90;;;;;;5005983;28;20539;-74
2022/04/30 07:04:41;;;;;;;22.10;18.20;;;15.40;99.90;;;;;;5010366;28;20485;-73
2022/04/30 07:07:07;;;;;;;22.23;16.80;;;15.00;99.90;;;;;;5005512;28;20950;-75
2022/04/30 07:09:33;;;;;;;20.17;17.30;;;15.30;99.90;;;;;;5005147;28;20442;-74
2022/04/30 07:12:06;;;;;;;20.53;16.53;;;15.20;99.90;;;;;;4999907;28;20463;-74
2022/04/30 07:14:35;;;;;;;20.60;17.30;;;15.20;99.90;;;;;;5002838;28;20864;-73
2022/04/30 07:17:03;;;;;;;18.97;16.70;;;15.20;99.90;;;;;;5010784;28;20449;-74
2022/04/30 07:19:29;;;;;;;19.67;17.53;;;15.30;99.90;;;;;;5009747;28;20447;-74
2022/04/30 07:21:55;;;;;;;20.10;17.93;;;15.10;99.90;;;;;;5012124;28;20448;-74
2022/04/30 07:24:20;;;;;;;25.17;19.10;;;15.10;99.90;;;;;;5006457;28;20806;-74
2022/04/30 07:26:46;;;;;;;22.67;18.13;;;14.90;99.90;;;;;;5005749;28;20204;-73
2022/04/30 07:29:12;;;;;;;20.67;17.30;;;15.00;99.90;;;;;;5018901;28;20188;-78
2022/04/30 07:31:38;;;;;;;24.43;17.73;;;15.30;99.90;;;;;;4998280;28;20300;-83
2022/04/30 07:34:04;;;;;;;19.60;17.60;;;15.10;99.90;;;;;;5006856;28;20800;-85
2022/04/30 07:36:30;;;;;;;22.23;18.70;;;14.90;99.90;;;;;;5011421;28;20991;-79
2022/04/30 07:38:56;;;;;;;23.07;17.50;;;15.00;99.90;;;;;;5013398;28;20433;-79
2022/04/30 07:41:21;;;;;;;23.60;19.50;;;14.70;99.90;;;;;;5017427;28;20448;-79
2022/04/30 07:43:47;;;;;;;23.33;20.07;;;14.80;99.90;;;;;;5028342;28;20225;-81
2022/04/30 07:46:13;;;;;;;19.83;17.33;;;14.60;99.90;;;;;;5014067;28;20208;-85
2022/04/30 07:48:39;;;;;;;23.83;18.73;;;14.90;99.90;;;;;;5026357;28;20428;-85
2022/04/30 07:51:13;;;;;;;22.90;19.63;;;14.80;99.90;;;;;;5006773;28;20192;-83
2022/04/30 07:53:39;;;;;;;23.33;19.10;;;14.80;99.90;;;;;;5015202;28;20456;-77
2022/04/30 07:56:05;;;;;;;23.13;17.93;;;14.90;99.90;;;;;;5018188;28;20911;-77
2022/04/30 07:58:30;;;;;;;21.13;18.23;;;15.00;99.90;;;;;;5020781;28;20180;-86
2022/04/30 08:00:56;;;;;;;21.60;17.43;;;15.20;99.90;;;;;;5019390;28;20457;-78
2022/04/30 08:03:21;;;;;;;21.47;18.07;;;15.20;99.90;;;;;;5017548;28;20221;-81
2022/04/30 08:05:48;;;;;;;22.50;16.70;;;15.40;99.90;;;;;;5014651;28;20320;-79
2022/04/30 08:08:15;;;;;;;20.87;16.97;;;15.50;99.90;;;;;;5017707;28;20450;-80
2022/04/30 08:10:41;;;;;;;22.30;18.83;;;15.60;99.90;;;;;;5019158;28;20188;-78
2022/04/30 08:13:06;;;;;;;22.80;18.30;;;15.30;99.90;;;;;;5019618;28;20459;-81
2022/04/30 08:15:32;;;;;;;19.67;16.93;;;15.30;99.90;;;;;;5017879;28;20206;-87
2022/04/30 08:17:58;;;;;;;18.70;16.70;;;14.90;99.90;;;;;;5019795;28;20282;-86
2022/04/30 08:20:24;;;;;;;18.80;16.23;;;14.90;99.90;;;;;;5036149;28;20203;-84
2022/04/30 08:22:50;;;;;;;19.50;16.53;;;15.00;99.90;;;;;;5021664;28;20216;-78
2022/04/30 08:25:16;;;;;;;19.10;16.97;;;15.10;99.90;;;;;;5021589;28;20253;-81
2022/04/30 08:27:42;;;;;;;17.30;15.50;;;15.10;99.90;;;;;;5018328;28;20454;-80
2022/04/30 08:30:09;;;;;;;18.57;15.87;;;15.00;99.90;;;;;;5022902;28;20188;-81
2022/04/30 08:32:36;;;;;;;17.63;15.77;;;15.10;99.90;;;;;;5017771;28;20455;-82
2022/04/30 08:35:02;;;;;;;17.33;15.37;;;15.20;99.90;;;;;;5017432;28;20446;-82
2022/04/30 08:37:29;;;;;;;19.43;16.47;;;14.70;99.90;;;;;;5019683;28;20470;-80
2022/04/30 08:39:55;;;;;;;19.77;17.67;;;14.80;99.90;;;;;;5019457;28;20534;-85
2022/04/30 08:42:23;;;;;;;17.27;15.33;;;14.90;99.90;;;;;;5013671;28;20483;-79
2022/04/30 08:44:49;;;;;;;18.73;16.73;;;15.10;99.90;;;;;;5018759;28;20544;-81
2022/04/30 08:47:15;;;;;;;22.47;17.37;;;15.10;99.90;;;;;;5018861;28;20920;-79
2022/04/30 08:49:44;;;;;;;19.13;15.80;;;15.20;99.90;;;;;;5019122;28;20423;-85
2022/04/30 08:52:13;;;;;;;18.07;16.07;;;15.20;99.90;;;;;;5026485;28;20204;-78
2022/04/30 08:54:38;;;;;;;23.30;17.63;;;15.10;99.90;;;;;;5014905;28;20507;-79
2022/04/30 08:57:04;;;;;;;19.63;17.53;;;15.20;99.90;;;;;;5021618;28;20431;-77
2022/04/30 08:59:30;;;;;;;21.13;18.60;;;15.00;99.90;;;;;;5017006;28;20203;-77
2022/04/30 09:01:58;;;;;;;20.43;16.87;;;14.70;99.90;;;;;;5013435;28;20459;-83
2022/04/30 09:04:41;;;;;;;22.30;19.60;;;14.70;99.90;;;;;;5016894;28;20271;-82
2022/04/30 09:07:13;;;;;;;22.13;18.20;;;14.70;99.90;;;;;;5015493;28;20525;-78
2022/04/30 09:09:39;;;;;;;20.43;17.63;;;14.40;99.90;;;;;;5014023;28;20478;-77
2022/04/30 09:12:13;;;;;;;20.47;18.30;;;14.70;99.90;;;;;;5016341;28;20489;-79
2022/04/30 09:14:40;;;;;;;21.50;18.40;;;14.70;99.90;;;;;;5018015;28;20983;-77
2022/04/30 09:17:11;;;;;;;19.27;17.20;;;14.70;99.90;;;;;;5018604;28;20423;-81
2022/04/30 09:19:55;;;;;;;21.70;16.40;;;14.70;99.90;;;;;;5016433;28;20435;-84
2022/04/30 09:22:47;;;;;;;21.37;17.80;;;14.60;99.90;;;;;;5028031;28;20465;-73
2022/04/30 09:25:15;;;;;;;23.37;17.70;;;14.50;99.90;;;;;;5024407;28;20562;-74
2022/04/30 09:27:46;;;;;;;22.13;19.07;;;14.70;99.90;;;;;;5012299;28;20943;-72
2022/04/30 09:30:16;;;;;;;23.53;17.37;;;14.80;99.90;;;;;;5012605;28;20435;-73
2022/04/30 09:32:42;;;;;;;20.50;17.33;;;14.80;99.90;;;;;;5017287;28;20465;-72
2022/04/30 09:38:05;;;;;;;21.20;17.07;;;15.00;99.90;;;;;;5016760;28;20203;-72
2022/04/30 09:40:31;;;;;;;23.83;18.63;;;15.00;99.90;;;;;;5017740;28;20514;-72
2022/04/30 09:42:58;;;;;;;20.47;16.67;;;14.90;99.90;;;;;;5020724;28;20470;-73
2022/04/30 09:45:32;;;;;;;19.43;16.67;;;14.90;99.90;;;;;;5017753;28;20471;-73
2022/04/30 09:48:00;;;;;;;20.73;16.53;;;15.00;99.90;;;;;;5016576;28;20546;-72
2022/04/30 09:56:09;;;;;;;19.57;16.33;;;15.00;99.90;;;;;;5018136;28;20517;-75
2022/04/30 09:58:38;;;;;;;20.17;17.30;;;15.00;99.90;;;;;;5018849;28;20434;-76
2022/04/30 10:01:05;;;;;;;21.97;18.23;;;14.90;99.90;;;;;;5030460;28;20463;-74
2022/04/30 10:03:33;;;;;;;22.83;17.80;;;15.10;99.90;;;;;;5029678;28;20579;-72
2022/04/30 10:06:01;;;;;;;19.90;17.47;;;15.20;99.90;;;;;;5009258;28;20590;-74
2022/04/30 10:08:28;;;;;;;20.03;16.70;;;15.20;99.90;;;;;;5026140;28;20454;-73
2022/04/30 10:11:14;;;;;;;20.93;17.03;;;15.40;99.90;;;;;;5024503;28;20439;-74
2022/04/30 10:13:52;;;;;;;19.77;17.67;;;15.50;99.90;;;;;;5017719;28;20551;-73
2022/04/30 10:16:29;;;;;;;22.00;17.43;;;15.50;99.90;;;;;;5013011;28;20446;-74
2022/04/30 10:19:16;;;;;;;22.37;18.90;;;15.10;99.90;;;;;;5008333;28;20447;-75
2022/04/30 10:21:42;;;;;;;28.10;19.83;;;14.80;99.90;;;;;;5013942;28;20450;-73
2022/04/30 10:24:12;;;;;;;22.63;18.40;;;14.80;99.90;;;;;;5009369;28;20443;-75
2022/04/30 10:26:57;;;;;;;21.27;17.63;;;15.00;99.90;;;;;;5014359;28;20466;-73
2022/04/30 10:29:22;;;;;;;25.63;18.30;;;15.10;99.90;;;;;;5010051;28;20435;-77
2022/04/30 10:31:49;;;;;;;19.63;17.33;;;15.00;99.90;;;;;;5013956;28;20494;-73
2022/04/30 10:34:15;;;;;;;22.03;19.20;;;15.00;99.90;;;;;;5008772;28;20185;-74
2022/04/30 10:36:41;;;;;;;21.83;18.77;;;15.00;99.90;;;;;;5013929;28;20455;-73
2022/04/30 10:39:18;;;;;;;22.20;19.87;;;15.10;99.90;;;;;;5022116;28;20284;-72
2022/04/30 10:41:45;;;;;;;20.30;18.17;;;15.00;99.90;;;;;;5014911;28;20196;-74
2022/04/30 10:44:13;;;;;;;23.30;19.40;;;15.20;99.90;;;;;;5006676;28;20575;-75
2022/04/30 10:46:42;;;;;;;21.17;19.00;;;15.10;99.90;;;;;;5014104;28;20533;-73
2022/04/30 10:49:08;;;;;;;23.83;20.10;;;15.20;99.90;;;;;;5010004;28;20435;-73
2022/04/30 10:51:43;;;;;;;24.10;20.37;;;15.30;99.90;;;;;;5007564;28;20543;-73
2022/04/30 10:54:13;;;;;;;23.03;19.17;;;14.90;99.90;;;;;;5012142;28;20437;-72
2022/04/30 10:56:39;;;;;;;22.13;17.80;;;14.90;99.90;;;;;;5009598;28;20990;-73
2022/04/30 10:59:06;;;;;;;21.37;17.67;;;14.90;99.90;;;;;;5015342;28;20440;-74
2022/04/30 11:01:32;;;;;;;17.97;15.97;;;15.00;99.90;;;;;;5009146;28;21016;-73
2022/04/30 11:03:57;;;;;;;18.53;16.53;;;14.90;99.90;;;;;;5006254;28;20546;-73
2022/04/30 11:06:25;;;;;;;18.10;16.20;;;15.00;99.90;;;;;;5007783;28;20455;-75
2022/04/30 11:09:06;;;;;;;20.00;17.23;;;14.70;99.90;;;;;;5013739;28;20717;-75
2022/04/30 11:11:33;;;;;;;19.00;13.57;;;14.60;99.90;;;;;;5009206;28;20569;-73
2022/04/30 11:14:04;;;;;;;17.03;15.23;;;14.70;99.90;;;;;;5010603;28;20452;-73
2022/04/30 11:16:34;;;;;;;17.43;15.03;;;14.70;99.90;;;;;;5013358;28;20981;-73
2022/04/30 11:19:04;;;;;;;18.63;14.13;;;14.90;99.90;;;;;;5012348;28;20538;-73
2022/04/30 11:21:34;;;;;;;16.30;14.60;;;14.90;99.90;;;;;;5012344;28;20479;-74
2022/04/30 11:24:00;;;;;;;16.10;14.33;;;14.90;99.90;;;;;;5010379;28;20451;-73
2022/04/30 11:26:27;;;;;;;16.50;14.70;;;14.90;99.90;;;;;;5014706;28;20467;-73
2022/04/30 11:28:52;;;;;;;17.63;15.60;;;14.90;99.90;;;;;;5009930;28;20264;-75
2022/04/30 11:31:20;;;;;;;16.10;14.50;;;14.90;99.90;;;;;;5016414;28;20442;-73
2022/04/30 11:33:45;;;;;;;17.97;16.03;;;14.90;99.90;;;;;;5027286;28;21638;-73
2022/04/30 11:36:12;;;;;;;19.07;14.70;;;14.80;99.90;;;;;;5012690;28;20431;-75
2022/04/30 11:38:37;;;;;;;19.17;15.00;;;14.80;99.90;;;;;;5011271;28;20192;-72
2022/04/30 11:41:05;;;;;;;16.27;14.37;;;14.90;99.90;;;;;;5011600;28;20439;-74
2022/04/30 11:43:30;;;;;;;19.13;14.70;;;15.20;99.90;;;;;;5010873;28;20712;-74
2022/04/30 11:46:00;;;;;;;19.67;14.63;;;14.80;99.90;;;;;;5010078;28;20501;-72
2022/04/30 11:48:31;;;;;;;17.63;15.47;;;14.90;99.90;;;;;;5012794;28;20180;-73
2022/04/30 11:50:57;;;;;;;17.70;13.60;;;14.70;99.90;;;;;;5005056;28;20427;-73
2022/04/30 11:53:23;;;;;;;15.73;13.90;;;14.60;99.90;;;;;;5010770;28;20486;-72
2022/04/30 11:55:50;;;;;;;17.73;13.80;;;14.70;99.90;;;;;;5006235;28;20180;-73
2022/04/30 11:58:15;;;;;;;16.90;14.80;;;14.60;99.90;;;;;;5009053;28;20442;-74
2022/04/30 12:00:41;;;;;;;15.97;13.30;;;14.80;99.90;;;;;;5010420;28;20861;-74
2022/04/30 12:03:06;;;;;;;17.77;13.70;;;15.00;99.90;;;;;;5010066;28;20208;-72
2022/04/30 12:05:32;;;;;;;16.30;12.70;;;14.90;99.90;;;;;;5011503;28;20283;-75
2022/04/30 12:08:01;;;;;;;14.30;12.70;;;15.00;99.90;;;;;;5008754;28;20181;-73
2022/04/30 12:10:28;;;;;;;14.60;13.10;;;15.20;99.90;;;;;;5011535;28;20730;-74
2022/04/30 12:12:54;;;;;;;15.43;13.10;;;15.30;99.90;;;;;;5012409;28;20453;-75
2022/04/30 12:15:25;;;;;;;19.33;11.73;;;15.50;99.90;;;;;;5007770;28;20538;-73
2022/04/30 12:26:39;;;;;;;14.40;12.50;;;15.50;99.90;;;;;;5009890;28;20466;-73
2022/04/30 12:29:19;;;;;;;14.33;12.17;;;15.40;99.90;;;;;;5010026;28;20443;-74
2022/04/30 12:31:51;;;;;;;15.47;12.97;;;15.50;99.90;;;;;;5008347;28;20176;-75
2022/04/30 12:34:19;;;;;;;13.27;11.90;;;15.50;99.90;;;;;;5004588;28;20439;-73
2022/04/30 12:37:10;;;;;;;14.40;12.90;;;15.60;99.90;;;;;;5007513;28;20971;-73
2022/04/30 12:39:37;;;;;;;14.37;12.00;;;15.60;99.90;;;;;;5007006;28;20451;-73
2022/04/30 12:42:03;;;;;;;17.53;13.00;;;15.70;99.90;;;;;;5024562;28;20461;-74
2022/04/30 12:44:29;;;;;;;15.07;12.80;;;15.60;99.90;;;;;;5021427;28;20932;-73
2022/04/30 12:46:55;;;;;;;19.73;13.13;;;15.50;99.90;;;;;;5005941;28;20446;-74
2022/04/30 12:49:21;;;;;;;14.73;12.10;;;15.50;99.90;;;;;;5007060;28;20199;-73
2022/04/30 12:51:49;;;;;;;17.07;13.90;;;15.60;99.90;;;;;;5005816;28;20443;-73
2022/04/30 12:54:16;;;;;;;15.60;14.00;;;15.50;99.90;;;;;;5009529;28;20248;-73
2022/04/30 12:56:46;;;;;;;15.40;13.70;;;15.50;99.90;;;;;;5024202;28;20446;-74
2022/04/30 12:59:13;;;;;;;19.57;14.73;;;15.50;99.90;;;;;;5023362;28;20465;-73
2022/04/30 13:01:40;;;;;;;17.33;14.00;;;15.30;99.90;;;;;;5005921;28;20557;-72
2022/04/30 13:04:08;;;;;;;15.07;13.50;;;15.30;99.90;;;;;;5009395;28;20950;-72
2022/04/30 13:06:36;;;;;;;18.93;13.40;;;15.30;99.90;;;;;;5007436;28;20471;-74
2022/04/30 13:14:30;;;;;;;12.70;11.37;;;15.20;99.90;;;;;;5014958;28;20880;-73